sensor_id;sensor_type;location;lat;lon;timestamp;pressure;altitude;pressure_sealevel;temperature;humidity
5753;BME280;2901;42.140;24.760;2023-04-26T00:01:24;98509.13;;;13.42;100.00
5753;BME280;2901;42.140;24.760;2023-04-26T00:03:51;98501.53;;;13.36;100.00
5753;BME280;2901;42.140;24.760;2023-04-26T00:06:17;98493.63;;;13.39;100.00
5753;BME280;2901;42.140;24.760;2023-04-26T00:08:42;98499.69;;;13.39;100.00
5753;BME280;2901;42.140;24.760;2023-04-26T00:11:08;98501.44;;;13.39;100.00
5753;BME280;2901;42.140;24.760;2023-04-26T00:13:34;98499.72;;;13.38;100.00
5753;BME280;2901;42.140;24.760;2023-04-26T00:16:01;98494.63;;;13.35;100.00
5753;BME280;2901;42.140;24.760;2023-04-26T00:18:26;98490.38;;;13.32;100.00
5753;BME280;2901;42.140;24.760;2023-04-26T00:20:52;98490.41;;;13.31;100.00
5753;BME280;2901;42.140;24.760;2023-04-26T00:23:17;98481.03;;;13.27;100.00
5753;BME280;2901;42.140;24.760;2023-04-26T00:25:43;98482.72;;;13.28;100.00
5753;BME280;2901;42.140;24.760;2023-04-26T00:28:08;98482.91;;;13.23;100.00
5753;BME280;2901;42.140;24.760;2023-04-26T00:30:34;98474.28;;;13.21;100.00
5753;BME280;2901;42.140;24.760;2023-04-26T00:33:01;98477.59;;;13.26;100.00
5753;BME280;2901;42.140;24.760;2023-04-26T00:35:27;98473.50;;;13.19;100.00
5753;BME280;2901;42.140;24.760;2023-04-26T00:37:52;98464.06;;;13.17;100.00
5753;BME280;2901;42.140;24.760;2023-04-26T00:40:17;98461.38;;;13.18;100.00
5753;BME280;2901;42.140;24.760;2023-04-26T00:42:44;98455.13;;;13.24;100.00
5753;BME280;2901;42.140;24.760;2023-04-26T00:45:10;98450.88;;;13.21;100.00
5753;BME280;2901;42.140;24.760;2023-04-26T00:47:35;98450.75;;;13.26;100.00
5753;BME280;2901;42.140;24.760;2023-04-26T00:50:01;98439.38;;;13.28;100.00
5753;BME280;2901;42.140;24.760;2023-04-26T00:52:27;98435.72;;;13.34;100.00
5753;BME280;2901;42.140;24.760;2023-04-26T00:54:53;98433.84;;;13.37;100.00
5753;BME280;2901;42.140;24.760;2023-04-26T00:57:19;98439.13;;;13.36;100.00
5753;BME280;2901;42.140;24.760;2023-04-26T00:59:45;98431.47;;;13.31;100.00
5753;BME280;2901;42.140;24.760;2023-04-26T01:02:11;98431.25;;;13.37;100.00
5753;BME280;2901;42.140;24.760;2023-04-26T01:04:36;98433.75;;;13.40;100.00
5753;BME280;2901;42.140;24.760;2023-04-26T01:07:03;98436.47;;;13.37;100.00
5753;BME280;2901;42.140;24.760;2023-04-26T01:09:31;98429.81;;;13.30;100.00
5753;BME280;2901;42.140;24.760;2023-04-26T01:11:56;98432.44;;;13.29;100.00
5753;BME280;2901;42.140;24.760;2023-04-26T01:14:23;98430.09;;;13.21;100.00
5753;BME280;2901;42.140;24.760;2023-04-26T01:16:48;98433.53;;;13.22;100.00
5753;BME280;2901;42.140;24.760;2023-04-26T01:19:15;98431.94;;;13.18;100.00
5753;BME280;2901;42.140;24.760;2023-04-26T01:21:41;98425.41;;;13.06;100.00
5753;BME280;2901;42.140;24.760;2023-04-26T01:24:09;98434.38;;;12.96;100.00
5753;BME280;2901;42.140;24.760;2023-04-26T01:26:35;98443.19;;;12.92;100.00
5753;BME280;2901;42.140;24.760;2023-04-26T01:29:12;98432.69;;;12.95;100.00
5753;BME280;2901;42.140;24.760;2023-04-26T01:31:37;98439.78;;;12.90;100.00
5753;BME280;2901;42.140;24.760;2023-04-26T01:34:02;98426.91;;;12.87;100.00
5753;BME280;2901;42.140;24.760;2023-04-26T01:36:28;98425.06;;;12.90;100.00
5753;BME280;2901;42.140;24.760;2023-04-26T01:38:53;98422.41;;;12.92;100.00
5753;BME280;2901;42.140;24.760;2023-04-26T01:41:19;98426.69;;;12.93;100.00
5753;BME280;2901;42.140;24.760;2023-04-26T01:43:44;98422.25;;;12.96;100.00
5753;BME280;2901;42.140;24.760;2023-04-26T01:46:09;98415.09;;;13.03;100.00
5753;BME280;2901;42.140;24.760;2023-04-26T01:48:35;98408.91;;;13.07;100.00
5753;BME280;2901;42.140;24.760;2023-04-26T01:51:00;98412.41;;;13.06;100.00
5753;BME280;2901;42.140;24.760;2023-04-26T01:53:26;98405.56;;;13.04;100.00
5753;BME280;2901;42.140;24.760;2023-04-26T01:55:51;98414.34;;;12.99;100.00
5753;BME280;2901;42.140;24.760;2023-04-26T01:58:16;98411.00;;;12.96;100.00
5753;BME280;2901;42.140;24.760;2023-04-26T02:00:42;98407.69;;;12.91;100.00
5753;BME280;2901;42.140;24.760;2023-04-26T02:03:07;98414.94;;;12.81;100.00
5753;BME280;2901;42.140;24.760;2023-04-26T02:05:32;98409.97;;;12.75;100.00
5753;BME280;2901;42.140;24.760;2023-04-26T02:07:58;98415.25;;;12.72;100.00
5753;BME280;2901;42.140;24.760;2023-04-26T02:10:23;98413.81;;;12.64;100.00
5753;BME280;2901;42.140;24.760;2023-04-26T02:12:48;98423.25;;;12.66;100.00
5753;BME280;2901;42.140;24.760;2023-04-26T02:15:14;98422.28;;;12.69;100.00
5753;BME280;2901;42.140;24.760;2023-04-26T02:17:39;98423.28;;;12.65;100.00
5753;BME280;2901;42.140;24.760;2023-04-26T02:20:05;98422.47;;;12.64;100.00
5753;BME280;2901;42.140;24.760;2023-04-26T02:22:33;98432.88;;;12.63;100.00
5753;BME280;2901;42.140;24.760;2023-04-26T02:24:58;98428.41;;;12.68;100.00
5753;BME280;2901;42.140;24.760;2023-04-26T02:27:24;98431.78;;;12.70;100.00
5753;BME280;2901;42.140;24.760;2023-04-26T02:29:49;98431.69;;;12.73;100.00
5753;BME280;2901;42.140;24.760;2023-04-26T02:32:15;98424.66;;;12.76;100.00
5753;BME280;2901;42.140;24.760;2023-04-26T02:34:41;98439.03;;;12.86;100.00
5753;BME280;2901;42.140;24.760;2023-04-26T02:37:07;98419.13;;;12.87;100.00
5753;BME280;2901;42.140;24.760;2023-04-26T02:39:33;98425.81;;;12.94;100.00
5753;BME280;2901;42.140;24.760;2023-04-26T02:41:58;98431.66;;;13.00;100.00
5753;BME280;2901;42.140;24.760;2023-04-26T02:44:24;98436.75;;;13.04;100.00
5753;BME280;2901;42.140;24.760;2023-04-26T02:46:49;98436.69;;;13.05;100.00
5753;BME280;2901;42.140;24.760;2023-04-26T02:49:14;98433.97;;;13.08;100.00
5753;BME280;2901;42.140;24.760;2023-04-26T02:51:40;98441.09;;;13.03;100.00
5753;BME280;2901;42.140;24.760;2023-04-26T02:54:06;98442.13;;;12.97;100.00
5753;BME280;2901;42.140;24.760;2023-04-26T02:56:31;98433.50;;;12.97;100.00
5753;BME280;2901;42.140;24.760;2023-04-26T02:58:56;98444.16;;;12.88;100.00
5753;BME280;2901;42.140;24.760;2023-04-26T03:01:22;98445.13;;;12.85;100.00
5753;BME280;2901;42.140;24.760;2023-04-26T03:03:47;98443.38;;;12.86;100.00
5753;BME280;2901;42.140;24.760;2023-04-26T03:06:13;98440.28;;;12.75;100.00
5753;BME280;2901;42.140;24.760;2023-04-26T03:08:38;98429.88;;;12.75;100.00
5753;BME280;2901;42.140;24.760;2023-04-26T03:11:04;98429.84;;;12.76;100.00
5753;BME280;2901;42.140;24.760;2023-04-26T03:13:29;98414.31;;;12.75;100.00
5753;BME280;2901;42.140;24.760;2023-04-26T03:15:55;98422.94;;;12.75;100.00
5753;BME280;2901;42.140;24.760;2023-04-26T03:18:20;98416.97;;;12.73;100.00
5753;BME280;2901;42.140;24.760;2023-04-26T03:20:45;98422.09;;;12.75;100.00
5753;BME280;2901;42.140;24.760;2023-04-26T03:23:11;98416.78;;;12.78;100.00
5753;BME280;2901;42.140;24.760;2023-04-26T03:25:36;98420.31;;;12.77;100.00
5753;BME280;2901;42.140;24.760;2023-04-26T03:28:02;98416.72;;;12.81;100.00
5753;BME280;2901;42.140;24.760;2023-04-26T03:30:28;98419.31;;;12.81;100.00
5753;BME280;2901;42.140;24.760;2023-04-26T03:32:53;98420.41;;;12.74;100.00
5753;BME280;2901;42.140;24.760;2023-04-26T03:35:19;98424.03;;;12.68;100.00
5753;BME280;2901;42.140;24.760;2023-04-26T03:37:44;98430.38;;;12.60;100.00
5753;BME280;2901;42.140;24.760;2023-04-26T03:40:10;98428.97;;;12.49;100.00
5753;BME280;2901;42.140;24.760;2023-04-26T03:42:36;98436.66;;;12.53;100.00
5753;BME280;2901;42.140;24.760;2023-04-26T03:45:02;98445.41;;;12.50;100.00
5753;BME280;2901;42.140;24.760;2023-04-26T03:47:29;98436.97;;;12.43;100.00
5753;BME280;2901;42.140;24.760;2023-04-26T03:49:55;98448.09;;;12.47;100.00
5753;BME280;2901;42.140;24.760;2023-04-26T03:52:20;98448.13;;;12.45;100.00
5753;BME280;2901;42.140;24.760;2023-04-26T03:54:46;98457.63;;;12.46;100.00
5753;BME280;2901;42.140;24.760;2023-04-26T03:57:11;98456.91;;;12.41;100.00
5753;BME280;2901;42.140;24.760;2023-04-26T03:59:37;98452.66;;;12.39;100.00
5753;BME280;2901;42.140;24.760;2023-04-26T04:02:02;98457.09;;;12.35;100.00
5753;BME280;2901;42.140;24.760;2023-04-26T04:04:27;98453.59;;;12.38;100.00
5753;BME280;2901;42.140;24.760;2023-04-26T04:06:53;98450.16;;;12.36;100.00
5753;BME280;2901;42.140;24.760;2023-04-26T04:09:18;98445.84;;;12.35;100.00
5753;BME280;2901;42.140;24.760;2023-04-26T04:11:44;98454.38;;;12.40;100.00
5753;BME280;2901;42.140;24.760;2023-04-26T04:14:09;98457.72;;;12.43;100.00
5753;BME280;2901;42.140;24.760;2023-04-26T04:16:35;98448.13;;;12.45;100.00
5753;BME280;2901;42.140;24.760;2023-04-26T04:19:00;98452.34;;;12.49;100.00
5753;BME280;2901;42.140;24.760;2023-04-26T04:21:25;98459.94;;;12.56;100.00
5753;BME280;2901;42.140;24.760;2023-04-26T04:23:52;98462.53;;;12.56;100.00
5753;BME280;2901;42.140;24.760;2023-04-26T04:26:17;98464.13;;;12.61;100.00
5753;BME280;2901;42.140;24.760;2023-04-26T04:28:43;98458.97;;;12.58;100.00
5753;BME280;2901;42.140;24.760;2023-04-26T04:31:09;98456.00;;;12.44;100.00
5753;BME280;2901;42.140;24.760;2023-04-26T04:33:35;98441.53;;;12.35;100.00
5753;BME280;2901;42.140;24.760;2023-04-26T04:36:01;98447.53;;;12.37;100.00
5753;BME280;2901;42.140;24.760;2023-04-26T04:38:27;98448.22;;;12.42;100.00
5753;BME280;2901;42.140;24.760;2023-04-26T04:40:53;98461.38;;;12.38;100.00
5753;BME280;2901;42.140;24.760;2023-04-26T04:43:18;98465.72;;;12.37;100.00
5753;BME280;2901;42.140;24.760;2023-04-26T04:45:44;98463.16;;;12.36;100.00
5753;BME280;2901;42.140;24.760;2023-04-26T04:48:10;98457.84;;;12.39;100.00
5753;BME280;2901;42.140;24.760;2023-04-26T04:50:37;98456.91;;;12.41;100.00
5753;BME280;2901;42.140;24.760;2023-04-26T04:53:03;98448.88;;;12.49;100.00
5753;BME280;2901;42.140;24.760;2023-04-26T04:55:28;98443.59;;;12.52;100.00
5753;BME280;2901;42.140;24.760;2023-04-26T04:57:53;98463.16;;;12.64;100.00
5753;BME280;2901;42.140;24.760;2023-04-26T05:00:19;98463.84;;;12.69;100.00
5753;BME280;2901;42.140;24.760;2023-04-26T05:02:45;98461.97;;;12.74;100.00
5753;BME280;2901;42.140;24.760;2023-04-26T05:05:10;98466.13;;;12.79;100.00
5753;BME280;2901;42.140;24.760;2023-04-26T05:07:36;98471.97;;;12.86;100.00
5753;BME280;2901;42.140;24.760;2023-04-26T05:10:02;98469.13;;;12.93;100.00
5753;BME280;2901;42.140;24.760;2023-04-26T05:12:28;98468.19;;;12.94;100.00
5753;BME280;2901;42.140;24.760;2023-04-26T05:14:53;98468.97;;;12.98;100.00
5753;BME280;2901;42.140;24.760;2023-04-26T05:17:19;98470.34;;;13.08;100.00
5753;BME280;2901;42.140;24.760;2023-04-26T05:19:44;98459.00;;;13.12;100.00
5753;BME280;2901;42.140;24.760;2023-04-26T05:22:10;98464.31;;;13.09;100.00
5753;BME280;2901;42.140;24.760;2023-04-26T05:24:36;98453.84;;;13.11;100.00
5753;BME280;2901;42.140;24.760;2023-04-26T05:27:01;98459.59;;;13.20;100.00
5753;BME280;2901;42.140;24.760;2023-04-26T05:29:28;98454.84;;;13.33;100.00
5753;BME280;2901;42.140;24.760;2023-04-26T05:31:54;98446.44;;;13.49;100.00
5753;BME280;2901;42.140;24.760;2023-04-26T05:34:19;98445.75;;;13.69;100.00
5753;BME280;2901;42.140;24.760;2023-04-26T05:36:45;98449.53;;;13.84;100.00
5753;BME280;2901;42.140;24.760;2023-04-26T05:39:10;98450.75;;;13.98;100.00
5753;BME280;2901;42.140;24.760;2023-04-26T05:41:36;98442.31;;;13.92;100.00
5753;BME280;2901;42.140;24.760;2023-04-26T05:44:02;98458.34;;;14.03;100.00
5753;BME280;2901;42.140;24.760;2023-04-26T05:46:27;98452.94;;;14.09;100.00
5753;BME280;2901;42.140;24.760;2023-04-26T05:48:53;98458.69;;;14.17;100.00
5753;BME280;2901;42.140;24.760;2023-04-26T05:51:20;98454.84;;;14.27;100.00
5753;BME280;2901;42.140;24.760;2023-04-26T05:53:45;98454.69;;;14.32;100.00
5753;BME280;2901;42.140;24.760;2023-04-26T05:56:12;98455.81;;;14.48;100.00
5753;BME280;2901;42.140;24.760;2023-04-26T05:58:37;98454.22;;;14.66;99.47
5753;BME280;2901;42.140;24.760;2023-04-26T06:01:02;98459.91;;;14.75;97.39
5753;BME280;2901;42.140;24.760;2023-04-26T06:03:28;98464.84;;;14.83;96.71
5753;BME280;2901;42.140;24.760;2023-04-26T06:05:53;98463.63;;;14.91;96.84
5753;BME280;2901;42.140;24.760;2023-04-26T06:08:18;98459.63;;;15.04;96.37
5753;BME280;2901;42.140;24.760;2023-04-26T06:10:44;98456.28;;;15.01;95.38
5753;BME280;2901;42.140;24.760;2023-04-26T06:13:11;98449.13;;;15.06;95.46
5753;BME280;2901;42.140;24.760;2023-04-26T06:15:36;98461.13;;;15.10;93.77
5753;BME280;2901;42.140;24.760;2023-04-26T06:18:03;98462.44;;;15.20;92.58
5753;BME280;2901;42.140;24.760;2023-04-26T06:20:29;98450.91;;;15.26;92.17
5753;BME280;2901;42.140;24.760;2023-04-26T06:22:54;98454.31;;;15.28;91.69
5753;BME280;2901;42.140;24.760;2023-04-26T06:25:20;98457.88;;;15.25;91.29
5753;BME280;2901;42.140;24.760;2023-04-26T06:27:45;98463.56;;;15.15;91.58
5753;BME280;2901;42.140;24.760;2023-04-26T06:30:11;98456.56;;;15.15;90.67
5753;BME280;2901;42.140;24.760;2023-04-26T06:32:39;98451.72;;;15.06;91.39
5753;BME280;2901;42.140;24.760;2023-04-26T06:35:04;98454.19;;;15.09;91.54
5753;BME280;2901;42.140;24.760;2023-04-26T06:37:30;98460.34;;;15.28;92.28
5753;BME280;2901;42.140;24.760;2023-04-26T06:39:56;98456.56;;;15.35;91.06
5753;BME280;2901;42.140;24.760;2023-04-26T06:42:21;98454.13;;;15.52;91.08
5753;BME280;2901;42.140;24.760;2023-04-26T06:44:46;98457.19;;;15.62;90.41
5753;BME280;2901;42.140;24.760;2023-04-26T06:47:12;98458.72;;;15.46;90.21
5753;BME280;2901;42.140;24.760;2023-04-26T06:49:38;98448.00;;;15.53;91.44
5753;BME280;2901;42.140;24.760;2023-04-26T06:52:03;98446.03;;;15.58;91.30
5753;BME280;2901;42.140;24.760;2023-04-26T06:54:31;98458.94;;;15.62;90.35
5753;BME280;2901;42.140;24.760;2023-04-26T06:56:57;98451.69;;;15.68;90.63
5753;BME280;2901;42.140;24.760;2023-04-26T06:59:22;98453.78;;;15.80;90.24
5753;BME280;2901;42.140;24.760;2023-04-26T07:01:48;98447.72;;;15.98;90.03
5753;BME280;2901;42.140;24.760;2023-04-26T07:04:13;98457.47;;;16.14;89.47
5753;BME280;2901;42.140;24.760;2023-04-26T07:06:41;98453.38;;;16.08;90.25
5753;BME280;2901;42.140;24.760;2023-04-26T07:09:06;98458.31;;;16.14;90.24
5753;BME280;2901;42.140;24.760;2023-04-26T07:11:32;98450.53;;;15.94;90.50
5753;BME280;2901;42.140;24.760;2023-04-26T07:13:58;98447.66;;;16.00;90.70
5753;BME280;2901;42.140;24.760;2023-04-26T07:16:23;98457.13;;;16.02;87.63
5753;BME280;2901;42.140;24.760;2023-04-26T07:18:48;98460.97;;;15.94;87.99
5753;BME280;2901;42.140;24.760;2023-04-26T07:21:14;98465.38;;;15.93;88.44
5753;BME280;2901;42.140;24.760;2023-04-26T07:23:40;98462.25;;;16.04;88.83
5753;BME280;2901;42.140;24.760;2023-04-26T07:26:05;98456.28;;;16.02;87.96
5753;BME280;2901;42.140;24.760;2023-04-26T07:28:31;98467.34;;;16.07;88.66
5753;BME280;2901;42.140;24.760;2023-04-26T07:30:58;98478.94;;;16.20;87.27
5753;BME280;2901;42.140;24.760;2023-04-26T07:33:24;98467.03;;;16.33;86.76
5753;BME280;2901;42.140;24.760;2023-04-26T07:35:56;98465.94;;;16.37;86.34
5753;BME280;2901;42.140;24.760;2023-04-26T07:38:22;98466.22;;;16.50;86.88
5753;BME280;2901;42.140;24.760;2023-04-26T07:40:48;98474.16;;;16.67;85.16
5753;BME280;2901;42.140;24.760;2023-04-26T07:43:15;98470.28;;;16.76;84.58
5753;BME280;2901;42.140;24.760;2023-04-26T07:45:41;98477.31;;;16.74;81.35
5753;BME280;2901;42.140;24.760;2023-04-26T07:48:06;98470.97;;;16.60;81.94
5753;BME280;2901;42.140;24.760;2023-04-26T07:50:32;98473.31;;;16.67;79.74
5753;BME280;2901;42.140;24.760;2023-04-26T07:52:57;98472.91;;;16.57;78.61
5753;BME280;2901;42.140;24.760;2023-04-26T07:55:23;98476.84;;;16.66;78.56
5753;BME280;2901;42.140;24.760;2023-04-26T07:57:48;98482.50;;;16.75;78.28
5753;BME280;2901;42.140;24.760;2023-04-26T08:00:14;98469.97;;;16.63;77.73
5753;BME280;2901;42.140;24.760;2023-04-26T08:02:43;98466.91;;;16.55;78.85
5753;BME280;2901;42.140;24.760;2023-04-26T08:05:11;98469.19;;;16.80;78.75
5753;BME280;2901;42.140;24.760;2023-04-26T08:07:37;98469.22;;;16.97;77.75
5753;BME280;2901;42.140;24.760;2023-04-26T08:10:03;98465.72;;;17.15;78.05
5753;BME280;2901;42.140;24.760;2023-04-26T08:12:28;98465.00;;;17.46;77.44
5753;BME280;2901;42.140;24.760;2023-04-26T08:14:54;98461.56;;;17.62;75.44
5753;BME280;2901;42.140;24.760;2023-04-26T08:17:19;98459.69;;;17.82;76.00
5753;BME280;2901;42.140;24.760;2023-04-26T08:19:45;98454.69;;;18.10;74.77
5753;BME280;2901;42.140;24.760;2023-04-26T08:22:10;98455.09;;;18.02;74.16
5753;BME280;2901;42.140;24.760;2023-04-26T08:24:35;98445.91;;;18.11;74.25
5753;BME280;2901;42.140;24.760;2023-04-26T08:27:01;98448.19;;;18.17;72.12
5753;BME280;2901;42.140;24.760;2023-04-26T08:29:26;98442.78;;;18.04;73.05
5753;BME280;2901;42.140;24.760;2023-04-26T08:31:52;98440.06;;;18.06;73.95
5753;BME280;2901;42.140;24.760;2023-04-26T08:34:18;98431.16;;;17.93;72.98
5753;BME280;2901;42.140;24.760;2023-04-26T08:36:43;98440.06;;;18.06;69.71
5753;BME280;2901;42.140;24.760;2023-04-26T08:39:10;98434.50;;;18.12;69.53
5753;BME280;2901;42.140;24.760;2023-04-26T08:41:43;98440.22;;;18.03;67.92
5753;BME280;2901;42.140;24.760;2023-04-26T08:44:09;98435.88;;;17.86;66.37
5753;BME280;2901;42.140;24.760;2023-04-26T08:46:46;98443.56;;;17.89;68.05
5753;BME280;2901;42.140;24.760;2023-04-26T08:49:25;98435.97;;;17.85;69.44
5753;BME280;2901;42.140;24.760;2023-04-26T08:51:55;98438.09;;;17.94;70.42
5753;BME280;2901;42.140;24.760;2023-04-26T08:54:22;98430.25;;;17.94;70.92
5753;BME280;2901;42.140;24.760;2023-04-26T08:56:49;98429.97;;;17.98;69.33
5753;BME280;2901;42.140;24.760;2023-04-26T08:59:16;98419.78;;;17.94;70.05
5753;BME280;2901;42.140;24.760;2023-04-26T09:01:43;98426.69;;;17.95;69.91
5753;BME280;2901;42.140;24.760;2023-04-26T09:04:08;98428.31;;;17.97;65.98
5753;BME280;2901;42.140;24.760;2023-04-26T09:06:34;98426.69;;;17.95;63.85
5753;BME280;2901;42.140;24.760;2023-04-26T09:09:02;98417.41;;;18.05;65.38
5753;BME280;2901;42.140;24.760;2023-04-26T09:11:29;98416.75;;;18.33;63.03
5753;BME280;2901;42.140;24.760;2023-04-26T09:13:55;98424.44;;;18.36;59.91
5753;BME280;2901;42.140;24.760;2023-04-26T09:16:33;98416.06;;;18.45;58.15
5753;BME280;2901;42.140;24.760;2023-04-26T09:18:59;98404.97;;;18.57;57.34
5753;BME280;2901;42.140;24.760;2023-04-26T09:21:25;98409.47;;;18.85;58.78
5753;BME280;2901;42.140;24.760;2023-04-26T09:24:00;98401.47;;;19.02;57.95
5753;BME280;2901;42.140;24.760;2023-04-26T09:26:28;98406.84;;;19.14;56.59
5753;BME280;2901;42.140;24.760;2023-04-26T09:29:15;98405.88;;;19.01;56.80
5753;BME280;2901;42.140;24.760;2023-04-26T09:31:48;98408.84;;;19.25;55.71
5753;BME280;2901;42.140;24.760;2023-04-26T09:34:15;98409.34;;;19.32;55.68
5753;BME280;2901;42.140;24.760;2023-04-26T09:36:54;98394.22;;;19.21;57.09
5753;BME280;2901;42.140;24.760;2023-04-26T09:41:58;98406.78;;;19.30;53.02
5753;BME280;2901;42.140;24.760;2023-04-26T09:44:24;98401.72;;;19.27;54.48
5753;BME280;2901;42.140;24.760;2023-04-26T09:47:09;98393.91;;;19.41;56.87
5753;BME280;2901;42.140;24.760;2023-04-26T09:49:48;98391.09;;;19.44;58.04
5753;BME280;2901;42.140;24.760;2023-04-26T09:52:16;98386.41;;;19.63;56.06
5753;BME280;2901;42.140;24.760;2023-04-26T09:54:47;98386.72;;;19.59;55.44
5753;BME280;2901;42.140;24.760;2023-04-26T09:57:15;98390.00;;;19.91;56.52
5753;BME280;2901;42.140;24.760;2023-04-26T09:59:45;98384.63;;;20.06;54.61
5753;BME280;2901;42.140;24.760;2023-04-26T10:02:17;98379.16;;;20.24;55.16
5753;BME280;2901;42.140;24.760;2023-04-26T10:04:44;98377.25;;;20.66;55.74
5753;BME280;2901;42.140;24.760;2023-04-26T10:07:12;98378.78;;;20.83;55.38
5753;BME280;2901;42.140;24.760;2023-04-26T10:09:38;98377.78;;;20.71;56.36
5753;BME280;2901;42.140;24.760;2023-04-26T10:12:03;98373.16;;;20.75;56.12
5753;BME280;2901;42.140;24.760;2023-04-26T10:14:29;98370.97;;;20.82;56.39
5753;BME280;2901;42.140;24.760;2023-04-26T10:16:55;98376.66;;;20.76;55.62
5753;BME280;2901;42.140;24.760;2023-04-26T10:19:22;98371.75;;;20.57;56.55
5753;BME280;2901;42.140;24.760;2023-04-26T10:21:50;98370.06;;;20.56;53.55
5753;BME280;2901;42.140;24.760;2023-04-26T10:24:17;98373.00;;;20.51;54.41
5753;BME280;2901;42.140;24.760;2023-04-26T10:26:49;98357.56;;;20.59;55.23
5753;BME280;2901;42.140;24.760;2023-04-26T10:29:17;98368.69;;;20.77;53.46
5753;BME280;2901;42.140;24.760;2023-04-26T10:34:27;98363.91;;;20.69;54.30
5753;BME280;2901;42.140;24.760;2023-04-26T10:37:16;98364.31;;;20.63;52.76
5753;BME280;2901;42.140;24.760;2023-04-26T10:39:43;98356.16;;;20.27;54.07
5753;BME280;2901;42.140;24.760;2023-04-26T10:42:24;98354.72;;;19.81;55.71
5753;BME280;2901;42.140;24.760;2023-04-26T10:44:52;98358.03;;;19.56;56.44
5753;BME280;2901;42.140;24.760;2023-04-26T10:52:32;98358.47;;;19.04;59.16
5753;BME280;2901;42.140;24.760;2023-04-26T10:54:58;98363.22;;;18.98;60.73
5753;BME280;2901;42.140;24.760;2023-04-26T10:57:50;98362.53;;;18.64;61.43
5753;BME280;2901;42.140;24.760;2023-04-26T11:00:18;98363.69;;;18.60;63.52
5753;BME280;2901;42.140;24.760;2023-04-26T11:08:14;98362.78;;;18.44;64.43
5753;BME280;2901;42.140;24.760;2023-04-26T11:10:40;98369.75;;;18.30;63.49
5753;BME280;2901;42.140;24.760;2023-04-26T11:13:06;98359.78;;;18.05;65.27
5753;BME280;2901;42.140;24.760;2023-04-26T11:15:32;98367.63;;;18.05;67.27
5753;BME280;2901;42.140;24.760;2023-04-26T11:18:01;98361.72;;;18.17;68.17
5753;BME280;2901;42.140;24.760;2023-04-26T11:20:31;98361.56;;;18.20;67.32
5753;BME280;2901;42.140;24.760;2023-04-26T11:22:57;98369.91;;;18.42;67.23
5753;BME280;2901;42.140;24.760;2023-04-26T11:25:25;98372.47;;;18.59;66.71
5753;BME280;2901;42.140;24.760;2023-04-26T11:27:56;98371.59;;;18.75;65.53
5753;BME280;2901;42.140;24.760;2023-04-26T11:30:21;98375.44;;;18.53;63.21
5753;BME280;2901;42.140;24.760;2023-04-26T11:32:46;98382.34;;;18.23;63.84
5753;BME280;2901;42.140;24.760;2023-04-26T11:35:13;98377.88;;;18.25;64.36
5753;BME280;2901;42.140;24.760;2023-04-26T11:37:38;98374.66;;;18.36;63.09
5753;BME280;2901;42.140;24.760;2023-04-26T11:40:05;98380.25;;;18.14;61.80
5753;BME280;2901;42.140;24.760;2023-04-26T11:42:31;98381.84;;;18.01;62.21
5753;BME280;2901;42.140;24.760;2023-04-26T11:44:57;98389.72;;;18.01;62.70
5753;BME280;2901;42.140;24.760;2023-04-26T11:47:23;98382.25;;;18.09;62.21
5753;BME280;2901;42.140;24.760;2023-04-26T11:49:50;98402.63;;;18.20;60.75
5753;BME280;2901;42.140;24.760;2023-04-26T11:52:16;98400.56;;;17.78;61.47
5753;BME280;2901;42.140;24.760;2023-04-26T11:54:41;98417.38;;;17.56;61.89
5753;BME280;2901;42.140;24.760;2023-04-26T11:57:17;98410.06;;;17.46;63.31
5753;BME280;2901;42.140;24.760;2023-04-26T11:59:43;98409.69;;;17.19;64.32
5753;BME280;2901;42.140;24.760;2023-04-26T12:02:09;98412.25;;;17.21;64.15
5753;BME280;2901;42.140;24.760;2023-04-26T12:04:35;98410.91;;;17.29;65.20
5753;BME280;2901;42.140;24.760;2023-04-26T12:07:03;98410.91;;;17.46;65.45
5753;BME280;2901;42.140;24.760;2023-04-26T12:09:29;98411.91;;;17.44;64.52
5753;BME280;2901;42.140;24.760;2023-04-26T12:12:00;98427.47;;;17.47;67.91
5753;BME280;2901;42.140;24.760;2023-04-26T12:14:35;98419.00;;;17.42;74.02
5753;BME280;2901;42.140;24.760;2023-04-26T12:17:02;98418.44;;;17.52;77.50
5753;BME280;2901;42.140;24.760;2023-04-26T12:19:31;98407.38;;;17.47;79.15
5753;BME280;2901;42.140;24.760;2023-04-26T12:21:57;98404.59;;;17.50;79.16
5753;BME280;2901;42.140;24.760;2023-04-26T12:24:29;98400.78;;;17.73;79.14
5753;BME280;2901;42.140;24.760;2023-04-26T12:26:59;98401.56;;;17.75;81.36
5753;BME280;2901;42.140;24.760;2023-04-26T12:29:25;98399.56;;;17.96;81.03
5753;BME280;2901;42.140;24.760;2023-04-26T12:31:52;98410.66;;;18.01;79.50
5753;BME280;2901;42.140;24.760;2023-04-26T12:34:17;98414.03;;;18.19;79.61
5753;BME280;2901;42.140;24.760;2023-04-26T12:36:42;98413.53;;;18.28;78.70
5753;BME280;2901;42.140;24.760;2023-04-26T12:39:09;98400.03;;;18.51;76.70
5753;BME280;2901;42.140;24.760;2023-04-26T12:41:35;98403.75;;;18.62;74.75
5753;BME280;2901;42.140;24.760;2023-04-26T12:44:00;98414.31;;;18.30;74.21
5753;BME280;2901;42.140;24.760;2023-04-26T12:46:26;98404.91;;;18.10;74.94
5753;BME280;2901;42.140;24.760;2023-04-26T12:48:53;98401.16;;;17.98;75.37
5753;BME280;2901;42.140;24.760;2023-04-26T12:51:19;98401.50;;;18.08;76.32
5753;BME280;2901;42.140;24.760;2023-04-26T12:53:44;98389.66;;;17.85;75.58
5753;BME280;2901;42.140;24.760;2023-04-26T12:56:10;98401.84;;;18.02;73.87
5753;BME280;2901;42.140;24.760;2023-04-26T12:58:35;98392.72;;;17.93;73.49
5753;BME280;2901;42.140;24.760;2023-04-26T13:01:00;98401.50;;;17.92;75.92
5753;BME280;2901;42.140;24.760;2023-04-26T13:03:26;98392.22;;;17.87;74.44
5753;BME280;2901;42.140;24.760;2023-04-26T13:05:51;98398.03;;;17.92;74.37
5753;BME280;2901;42.140;24.760;2023-04-26T13:08:16;98393.06;;;18.19;72.55
5753;BME280;2901;42.140;24.760;2023-04-26T13:10:42;98389.13;;;18.43;72.00
5753;BME280;2901;42.140;24.760;2023-04-26T13:13:07;98392.00;;;18.70;71.60
5753;BME280;2901;42.140;24.760;2023-04-26T13:15:32;98392.22;;;18.81;71.29
5753;BME280;2901;42.140;24.760;2023-04-26T13:17:58;98385.97;;;18.97;70.63